createdAt,value
2023-03-06T00:00:54.941Z,11.800
2023-03-06T00:01:55.460Z,12.300
2023-03-06T00:02:55.112Z,13.100
2023-03-06T00:03:55.892Z,12.200
2023-03-06T00:04:55.574Z,12.300
2023-03-06T00:05:55.227Z,12.200
2023-03-06T00:06:55.287Z,12.100
2023-03-06T00:07:54.776Z,12.100
2023-03-06T00:08:55.354Z,12.400
2023-03-06T00:09:54.845Z,11.800
2023-03-06T00:10:55.382Z,12.200
2023-03-06T00:11:54.964Z,11.400
2023-03-06T00:12:55.428Z,12.700
2023-03-06T00:13:54.956Z,11.800
2023-03-06T00:14:55.429Z,12.000
2023-03-06T00:15:54.935Z,12.800
2023-03-06T00:16:55.557Z,12.400
2023-03-06T00:17:55.011Z,12.600
2023-03-06T00:18:55.541Z,12.100
2023-03-06T00:19:55.018Z,11.700
2023-03-06T00:20:55.599Z,12.800
2023-03-06T00:21:55.111Z,13.200
2023-03-06T00:22:55.558Z,12.400
2023-03-06T00:23:55.033Z,12.400
2023-03-06T00:24:55.544Z,12.600
2023-03-06T00:25:55.154Z,12.300
2023-03-06T00:26:55.969Z,11.900
2023-03-06T00:27:55.746Z,12.600
2023-03-06T00:28:55.594Z,12.400
2023-03-06T00:29:55.105Z,12.600
2023-03-06T00:30:55.639Z,12.000
2023-03-06T00:31:55.238Z,12.300
2023-03-06T00:32:55.769Z,11.900
2023-03-06T00:33:55.311Z,12.300
2023-03-06T00:34:54.821Z,12.600
2023-03-06T00:35:55.613Z,13.100
2023-03-06T00:36:55.219Z,13.000
2023-03-06T00:37:55.665Z,12.300
2023-03-06T00:38:55.229Z,12.200
2023-03-06T00:39:54.864Z,12.300
2023-03-06T00:40:55.463Z,12.300
2023-03-06T00:41:54.973Z,13.200
2023-03-06T00:42:55.482Z,13.000
2023-03-06T00:43:55.031Z,12.600
2023-03-06T00:44:55.543Z,11.700
2023-03-06T00:45:55.241Z,13.300
2023-03-06T00:46:54.972Z,12.700
2023-03-06T00:47:55.531Z,12.800
2023-03-06T00:48:55.057Z,12.400
2023-03-06T00:49:55.540Z,12.700
2023-03-06T00:50:55.031Z,12.600
2023-03-06T00:51:55.601Z,12.800
2023-03-06T00:52:55.067Z,12.800
2023-03-06T00:53:55.547Z,12.600
2023-03-06T00:54:55.032Z,13.100
2023-03-06T00:55:55.578Z,11.800
2023-03-06T00:56:55.101Z,11.900
2023-03-06T00:57:55.624Z,12.300
2023-03-06T00:58:55.189Z,13.000
2023-03-06T00:59:55.767Z,12.800
2023-03-06T01:00:55.426Z,12.500
2023-03-06T01:01:55.055Z,12.500
2023-03-06T01:02:54.853Z,12.900
2023-03-06T01:03:55.413Z,12.300
2023-03-06T01:04:55.068Z,12.800
2023-03-06T01:05:55.669Z,12.700
2023-03-06T01:06:55.147Z,12.700
2023-03-06T01:07:55.737Z,12.000
2023-03-06T01:08:55.331Z,12.900
2023-03-06T01:09:54.820Z,12.700
2023-03-06T01:10:55.466Z,13.200
2023-03-06T01:11:55.037Z,12.700
2023-03-06T01:12:57.230Z,13.600
2023-03-06T01:13:54.841Z,12.800
2023-03-06T01:14:55.437Z,12.500
2023-03-06T01:15:55.065Z,13.700
2023-03-06T01:16:56.006Z,14.000
2023-03-06T01:17:55.538Z,12.800
2023-03-06T01:18:55.157Z,13.700
2023-03-06T01:19:55.717Z,14.000
2023-03-06T01:20:55.404Z,13.400
2023-03-06T01:21:54.881Z,13.000
2023-03-06T01:22:55.678Z,13.800
2023-03-06T01:23:55.201Z,13.400
2023-03-06T01:24:54.629Z,12.600
2023-03-06T01:25:55.156Z,12.800
2023-03-06T01:26:55.644Z,13.500
2023-03-06T01:27:55.200Z,14.400
2023-03-06T01:28:54.763Z,12.900
2023-03-06T01:29:55.244Z,13.200
2023-03-06T01:30:54.753Z,13.300
2023-03-06T01:31:55.439Z,13.600
2023-03-06T01:32:55.340Z,13.500
2023-03-06T01:33:54.839Z,13.800
2023-03-06T01:34:55.308Z,12.700
2023-03-06T01:35:55.013Z,13.200
2023-03-06T01:36:55.550Z,13.200
2023-03-06T01:37:55.051Z,12.800
2023-03-06T01:38:55.504Z,13.600
2023-03-06T01:39:55.010Z,13.600
2023-03-06T01:40:55.638Z,13.400
2023-03-06T01:41:55.201Z,14.100
2023-03-06T01:42:54.754Z,13.700
2023-03-06T01:43:55.373Z,13.500
2023-03-06T01:44:54.868Z,14.000
2023-03-06T01:45:55.556Z,13.500
2023-03-06T01:46:55.125Z,13.400
2023-03-06T01:47:55.712Z,13.800
2023-03-06T01:48:55.269Z,12.900
2023-03-06T01:49:54.754Z,13.000
2023-03-06T01:50:55.322Z,13.200
2023-03-06T01:51:54.842Z,13.900
2023-03-06T01:52:55.335Z,12.900
2023-03-06T01:53:54.791Z,13.600
2023-03-06T01:54:55.207Z,12.800
2023-03-06T01:55:54.783Z,12.700
2023-03-06T01:56:55.258Z,13.400
2023-03-06T01:57:55.029Z,13.800
2023-03-06T01:58:55.569Z,13.100
2023-03-06T01:59:55.133Z,12.600
2023-03-06T02:00:55.621Z,13.400
2023-03-06T02:01:55.291Z,13.700
2023-03-06T02:02:55.109Z,12.400
2023-03-06T02:03:55.668Z,13.700
2023-03-06T02:04:55.155Z,13.100
2023-03-06T02:05:55.740Z,12.300
2023-03-06T02:06:55.390Z,12.700
2023-03-06T02:07:54.881Z,12.200
2023-03-06T02:08:55.441Z,13.900
2023-03-06T02:09:54.965Z,14.000
2023-03-06T02:10:55.541Z,12.200
2023-03-06T02:11:55.518Z,11.900
2023-03-06T02:12:55.047Z,13.200
2023-03-06T02:13:55.595Z,12.700
2023-03-06T02:14:55.136Z,13.100
2023-03-06T02:15:55.675Z,13.800
2023-03-06T02:16:55.302Z,12.900
2023-03-06T02:17:54.965Z,14.100
2023-03-06T02:18:55.413Z,13.100
2023-03-06T02:19:54.933Z,14.100
2023-03-06T02:20:55.585Z,14.000
2023-03-06T02:21:55.328Z,13.700
2023-03-06T02:22:54.860Z,13.400
2023-03-06T02:23:55.466Z,13.600
2023-03-06T02:24:55.232Z,13.800
2023-03-06T02:25:54.852Z,13.600
2023-03-06T02:26:55.423Z,14.200
2023-03-06T02:27:54.975Z,13.400
2023-03-06T02:28:55.609Z,13.300
2023-03-06T02:29:55.065Z,14.100
2023-03-06T02:30:55.648Z,13.500
2023-03-06T02:31:55.519Z,14.000
2023-03-06T02:32:55.251Z,14.200
2023-03-06T02:33:54.944Z,13.500
2023-03-06T02:34:55.445Z,13.500
2023-03-06T02:35:55.423Z,13.500
2023-03-06T02:36:55.084Z,14.000
2023-03-06T02:37:55.566Z,14.700
2023-03-06T02:38:55.181Z,13.400
2023-03-06T02:39:54.772Z,14.700
2023-03-06T02:40:55.451Z,14.100
2023-03-06T02:41:55.115Z,14.400
2023-03-06T02:42:55.633Z,14.000
2023-03-06T02:43:55.485Z,14.500
2023-03-06T02:44:55.059Z,13.900
2023-03-06T02:45:55.746Z,14.900
2023-03-06T02:46:55.430Z,14.900
2023-03-06T02:47:54.973Z,14.800
2023-03-06T02:48:55.497Z,14.500
2023-03-06T02:49:55.144Z,15.100
2023-03-06T02:50:54.731Z,14.300
2023-03-06T02:51:55.292Z,15.100
2023-03-06T02:52:54.854Z,15.100
2023-03-06T02:53:55.500Z,14.800
2023-03-06T02:54:55.203Z,14.300
2023-03-06T02:55:54.764Z,14.800
2023-03-06T02:56:55.302Z,15.200
2023-03-06T02:57:54.874Z,15.000
2023-03-06T02:58:55.424Z,15.600
2023-03-06T02:59:55.066Z,15.200
2023-03-06T03:00:56.321Z,15.300
2023-03-06T03:01:55.157Z,15.500
2023-03-06T03:02:54.655Z,15.200
2023-03-06T03:03:55.475Z,15.400
2023-03-06T03:04:55.339Z,15.500
2023-03-06T03:05:55.070Z,15.800
2023-03-06T03:06:55.960Z,15.500
2023-03-06T03:07:55.516Z,16.100
2023-03-06T03:08:55.189Z,16.400
2023-03-06T03:09:54.771Z,16.100
2023-03-06T03:10:55.344Z,16.100
2023-03-06T03:11:55.351Z,15.600
2023-03-06T03:12:54.972Z,15.400
2023-03-06T03:13:55.495Z,15.300
2023-03-06T03:14:55.034Z,15.900
2023-03-06T03:15:55.754Z,15.300
2023-03-06T03:16:55.578Z,15.300
2023-03-06T03:17:55.144Z,16.200
2023-03-06T03:18:55.667Z,15.300
2023-03-06T03:19:55.224Z,15.900
2023-03-06T03:20:54.856Z,14.900
2023-03-06T03:21:55.433Z,15.900
2023-03-06T03:22:55.245Z,16.400
2023-03-06T03:23:54.891Z,15.400
2023-03-06T03:24:55.568Z,16.400
2023-03-06T03:25:55.219Z,15.700
2023-03-06T03:26:55.729Z,15.800
2023-03-06T03:27:55.360Z,16.300
2023-03-06T03:28:54.845Z,16.800
2023-03-06T03:29:55.344Z,16.000
2023-03-06T03:30:54.884Z,16.500
2023-03-06T03:31:55.541Z,15.600
2023-03-06T03:32:55.155Z,16.600
2023-03-06T03:33:55.680Z,17.000
2023-03-06T03:34:55.196Z,16.000
2023-03-06T03:35:55.853Z,17.000
2023-03-06T03:36:55.417Z,17.700
2023-03-06T03:37:54.957Z,16.500
2023-03-06T03:38:55.509Z,16.700
2023-03-06T03:39:54.997Z,17.200
2023-03-06T03:40:55.729Z,16.700
2023-03-06T03:41:55.267Z,16.800
2023-03-06T03:42:55.241Z,16.700
2023-03-06T03:43:54.829Z,15.700
2023-03-06T03:44:55.329Z,15.600
2023-03-06T03:45:54.813Z,16.200
2023-03-06T03:46:55.700Z,16.300
2023-03-06T03:47:55.262Z,17.300
2023-03-06T03:48:54.808Z,16.100
2023-03-06T03:49:55.334Z,16.700
2023-03-06T03:50:54.853Z,17.200
2023-03-06T03:51:55.331Z,16.100
2023-03-06T03:52:54.792Z,15.800
2023-03-06T03:53:55.348Z,17.300
2023-03-06T03:54:54.880Z,16.400
2023-03-06T03:55:55.351Z,16.500
2023-03-06T03:56:54.807Z,17.100
2023-03-06T03:57:55.415Z,16.700
2023-03-06T03:58:55.016Z,17.700
2023-03-06T03:59:55.601Z,16.600
2023-03-06T04:00:55.352Z,16.900
2023-03-06T04:01:55.980Z,17.700
2023-03-06T04:02:55.705Z,16.400
2023-03-06T04:03:55.331Z,16.200
2023-03-06T04:04:55.109Z,16.300
2023-03-06T04:05:54.725Z,15.900
2023-03-06T04:06:55.389Z,17.300
2023-03-06T04:07:54.889Z,15.700
2023-03-06T04:08:55.373Z,16.500
2023-03-06T04:09:54.960Z,16.800
2023-03-06T04:10:55.448Z,17.200
2023-03-06T04:11:54.995Z,16.700
2023-03-06T04:12:55.594Z,17.300
2023-03-06T04:13:55.156Z,17.400
2023-03-06T04:14:54.756Z,17.800
2023-03-06T04:15:56.768Z,17.000
2023-03-06T04:17:02.295Z,17.900
2023-03-06T04:17:57.496Z,18.100
2023-03-06T04:18:55.141Z,17.700
2023-03-06T04:19:55.664Z,17.100
2023-03-06T04:20:55.533Z,16.600
2023-03-06T04:21:55.136Z,16.900
2023-03-06T04:22:55.731Z,17.600
2023-03-06T04:23:55.353Z,16.900
2023-03-06T04:24:54.874Z,16.600
2023-03-06T04:25:55.385Z,17.200
2023-03-06T04:26:55.048Z,17.600
2023-03-06T04:27:55.628Z,18.400
2023-03-06T04:28:55.181Z,17.100
2023-03-06T04:29:55.711Z,17.600
2023-03-06T04:30:55.562Z,17.300
2023-03-06T04:31:55.249Z,17.800
2023-03-06T04:32:55.566Z,18.100
2023-03-06T04:33:55.046Z,17.400
2023-03-06T04:34:55.570Z,17.700
2023-03-06T04:35:55.349Z,17.300
2023-03-06T04:36:54.922Z,17.600
2023-03-06T04:37:55.426Z,17.900
2023-03-06T04:38:55.236Z,17.700
2023-03-06T04:39:54.885Z,17.500
2023-03-06T04:40:58.318Z,17.500
2023-03-06T04:41:55.377Z,18.600
2023-03-06T04:42:55.144Z,18.300
2023-03-06T04:43:55.639Z,19.100
2023-03-06T04:44:55.208Z,18.500
2023-03-06T04:45:55.939Z,18.500
2023-03-06T04:46:55.647Z,18.900
2023-03-06T04:47:55.360Z,18.400
2023-03-06T04:48:54.946Z,19.600
2023-03-06T04:49:55.469Z,18.500
2023-03-06T04:50:55.152Z,18.400
2023-03-06T04:51:55.627Z,18.500
2023-03-06T04:52:55.272Z,18.000
2023-03-06T04:53:54.807Z,18.300
2023-03-06T04:54:55.332Z,18.500
2023-03-06T04:55:54.856Z,18.400
2023-03-06T04:56:55.414Z,18.100
2023-03-06T04:57:54.965Z,18.000
2023-03-06T04:58:55.581Z,18.400
2023-03-06T04:59:55.460Z,19.400
2023-03-06T05:00:55.087Z,18.700
2023-03-06T05:01:54.897Z,19.900
2023-03-06T05:02:55.742Z,18.700
2023-03-06T05:03:55.337Z,19.600
2023-03-06T05:04:54.880Z,19.100
2023-03-06T05:05:55.456Z,20.400
2023-03-06T05:06:55.017Z,19.900
2023-03-06T05:07:56.031Z,18.100
2023-03-06T05:08:55.707Z,19.400
2023-03-06T05:09:55.401Z,18.500
2023-03-06T05:10:54.880Z,19.000
2023-03-06T05:11:55.418Z,19.200
2023-03-06T05:12:54.916Z,20.000
2023-03-06T05:13:55.431Z,19.200
2023-03-06T05:14:54.961Z,19.600
2023-03-06T05:15:55.535Z,19.100
2023-03-06T05:16:55.312Z,18.900
2023-03-06T05:17:54.844Z,19.600
2023-03-06T05:18:55.391Z,20.400
2023-03-06T05:19:55.108Z,20.200
2023-03-06T05:20:55.656Z,20.700
2023-03-06T05:21:55.257Z,18.800
2023-03-06T05:22:54.765Z,19.100
2023-03-06T05:23:55.287Z,19.600
2023-03-06T05:24:54.834Z,19.100
2023-03-06T05:25:55.465Z,19.100
2023-03-06T05:26:55.153Z,19.300
2023-03-06T05:27:55.941Z,19.200
2023-03-06T05:28:55.419Z,19.400
2023-03-06T05:29:54.996Z,20.600
2023-03-06T05:30:55.900Z,19.900
2023-03-06T05:31:54.977Z,19.300
2023-03-06T05:32:56.054Z,19.400
2023-03-06T05:33:55.613Z,19.600
2023-03-06T05:34:55.177Z,21.600
2023-03-06T05:35:55.878Z,20.200
2023-03-06T05:36:55.817Z,19.700
2023-03-06T05:37:56.041Z,20.200
2023-03-06T05:38:55.593Z,20.100
2023-03-06T05:39:55.153Z,21.800
2023-03-06T05:40:55.743Z,20.600
2023-03-06T05:41:55.318Z,20.900
2023-03-06T05:42:55.000Z,20.800
2023-03-06T05:43:55.544Z,21.000
2023-03-06T05:44:55.088Z,19.900
2023-03-06T05:45:55.754Z,21.100
2023-03-06T05:46:55.496Z,20.400
2023-03-06T05:47:54.965Z,21.100
2023-03-06T05:48:55.710Z,20.900
2023-03-06T05:49:55.308Z,20.400
2023-03-06T05:50:54.720Z,20.300
2023-03-06T05:51:55.189Z,21.400
2023-03-06T05:52:55.721Z,21.100
2023-03-06T05:53:55.605Z,21.300
2023-03-06T05:54:55.093Z,20.000
2023-03-06T05:55:55.809Z,20.700
2023-03-06T05:56:58.106Z,20.200
2023-03-06T05:57:55.665Z,21.100
2023-03-06T05:58:55.252Z,21.000
2023-03-06T05:59:54.754Z,19.600
2023-03-06T06:00:55.321Z,20.400
2023-03-06T06:01:54.917Z,20.900
2023-03-06T06:02:55.922Z,21.300
2023-03-06T06:03:55.601Z,21.300
2023-03-06T06:04:55.241Z,20.800
2023-03-06T06:05:54.846Z,20.500
2023-03-06T06:06:55.369Z,20.300
2023-03-06T06:07:54.992Z,21.700
2023-03-06T06:08:55.623Z,21.300
2023-03-06T06:09:55.111Z,22.000
2023-03-06T06:10:55.592Z,22.300
2023-03-06T06:11:55.145Z,23.700
2023-03-06T06:12:55.639Z,21.100
2023-03-06T06:13:55.136Z,22.000
2023-03-06T06:14:54.733Z,21.000
2023-03-06T06:15:55.422Z,22.400
2023-03-06T06:16:55.108Z,21.400
2023-03-06T06:17:55.600Z,21.100
2023-03-06T06:18:57.494Z,22.000
2023-03-06T06:19:55.143Z,21.700
2023-03-06T06:20:56.099Z,22.100
2023-03-06T06:21:55.741Z,22.800
2023-03-06T06:22:55.254Z,25.600
2023-03-06T06:23:54.959Z,24.600
2023-03-06T06:24:55.572Z,25.500
2023-03-06T06:25:55.095Z,23.300
2023-03-06T06:26:55.641Z,23.200
2023-03-06T06:27:55.184Z,23.400
2023-03-06T06:28:54.839Z,22.800
2023-03-06T06:29:54.933Z,24.100
2023-03-06T06:30:55.478Z,22.300
2023-03-06T06:31:55.180Z,23.700
2023-03-06T06:32:55.805Z,24.200
2023-03-06T06:33:55.297Z,22.700
2023-03-06T06:34:54.857Z,23.700
2023-03-06T06:35:55.542Z,24.300
2023-03-06T06:36:55.128Z,24.300
2023-03-06T06:37:55.600Z,22.100
2023-03-06T06:38:55.128Z,23.700
2023-03-06T06:39:55.842Z,24.600
2023-03-06T06:41:27.056Z,25.100
2023-03-06T06:43:04.597Z,23.100
2023-03-06T06:43:59.190Z,24.600
2023-03-06T06:44:58.824Z,22.400
2023-03-06T06:46:15.402Z,24.100
2023-03-06T06:48:03.771Z,24.600
2023-03-06T06:49:03.545Z,23.800
2023-03-06T06:50:03.227Z,22.600
2023-03-06T06:51:02.726Z,23.900
2023-03-06T06:52:03.459Z,23.600
2023-03-06T06:53:03.028Z,23.800
2023-03-06T06:54:03.544Z,23.800
2023-03-06T06:55:03.140Z,23.200
2023-03-06T06:56:03.649Z,23.100
2023-03-06T06:57:03.136Z,24.900
2023-03-06T06:58:03.618Z,23.600
2023-03-06T06:59:15.510Z,23.900
2023-03-06T07:01:03.801Z,23.900
2023-03-06T07:02:03.669Z,24.300
2023-03-06T07:03:03.201Z,23.600
2023-03-06T07:04:02.779Z,23.500
2023-03-06T07:05:13.453Z,22.500
2023-03-06T07:07:03.097Z,24.200
2023-03-06T07:08:03.682Z,23.500
2023-03-06T07:09:03.217Z,24.400
2023-03-06T07:10:02.767Z,23.400
2023-03-06T07:11:03.421Z,24.400
2023-03-06T07:12:02.932Z,24.500
2023-03-06T07:13:03.483Z,23.800
2023-03-06T07:14:03.032Z,23.900
2023-03-06T07:15:03.616Z,24.500
2023-03-06T07:16:03.331Z,25.200
2023-03-06T07:17:02.840Z,23.400
2023-03-06T07:18:06.048Z,23.600
2023-03-06T07:19:03.772Z,25.400
2023-03-06T07:20:03.371Z,23.700
2023-03-06T07:21:02.900Z,23.700
2023-03-06T07:22:03.468Z,22.500
2023-03-06T07:23:08.244Z,24.500
2023-03-06T07:24:03.117Z,22.800
2023-03-06T07:25:03.804Z,25.300
2023-03-06T07:26:03.305Z,23.600
2023-03-06T07:27:02.773Z,25.300
2023-03-06T07:28:09.056Z,24.300
2023-03-06T07:29:09.218Z,22.600
2023-03-06T07:30:03.724Z,24.400
2023-03-06T07:31:03.397Z,24.800
2023-03-06T07:32:02.991Z,24.000
2023-03-06T07:33:03.754Z,24.400
2023-03-06T07:34:04.880Z,23.200
2023-03-06T07:35:19.276Z,24.200
2023-03-06T07:37:06.529Z,24.400
2023-03-06T07:38:06.113Z,22.900
2023-03-06T07:39:06.643Z,24.200
2023-03-06T07:40:06.231Z,24.100
2023-03-06T07:41:05.814Z,23.100
2023-03-06T07:42:06.441Z,24.100
2023-03-06T07:43:18.585Z,24.700
2023-03-06T07:45:06.000Z,24.600
2023-03-06T07:46:06.609Z,23.400
2023-03-06T07:47:06.567Z,23.900
2023-03-06T07:48:06.504Z,24.100
2023-03-06T07:49:06.245Z,24.300
2023-03-06T07:50:05.840Z,23.500
2023-03-06T07:51:06.411Z,23.800
2023-03-06T07:52:05.881Z,24.100
2023-03-06T07:53:06.429Z,23.300
2023-03-06T07:54:05.863Z,24.400
2023-03-06T07:55:06.440Z,23.600
2023-03-06T07:56:05.992Z,25.100
2023-03-06T07:57:06.464Z,23.500
2023-03-06T07:58:06.089Z,23.600
2023-03-06T07:59:06.704Z,23.200
2023-03-06T08:00:06.368Z,23.900
2023-03-06T08:01:06.019Z,24.700
2023-03-06T08:02:06.528Z,23.600
2023-03-06T08:03:06.174Z,23.500
2023-03-06T08:04:06.090Z,23.400
2023-03-06T08:05:06.648Z,25.100
2023-03-06T08:06:06.197Z,23.800
2023-03-06T08:07:06.648Z,23.400
2023-03-06T08:08:06.195Z,22.900
2023-03-06T08:09:05.732Z,24.200
2023-03-06T08:10:06.272Z,23.000
2023-03-06T08:11:05.905Z,24.300
2023-03-06T08:12:06.505Z,23.000
2023-03-06T08:13:06.049Z,22.800
2023-03-06T08:14:06.595Z,23.200
2023-03-06T08:15:06.147Z,23.700
2023-03-06T08:16:06.825Z,21.900
2023-03-06T08:17:06.859Z,22.300
2023-03-06T08:18:06.396Z,23.400
2023-03-06T08:19:05.984Z,23.400
2023-03-06T08:20:06.521Z,23.400
2023-03-06T08:21:06.091Z,23.100
2023-03-06T08:22:05.813Z,23.200
2023-03-06T08:23:06.397Z,27.600
2023-03-06T08:24:07.593Z,29.300
2023-03-06T08:25:06.171Z,27.100
2023-03-06T08:26:05.904Z,22.600
2023-03-06T08:27:06.421Z,23.200
2023-03-06T08:28:06.564Z,23.500
2023-03-06T08:29:06.130Z,21.900
2023-03-06T08:30:06.628Z,22.400
2023-03-06T08:31:06.171Z,22.000
2023-03-06T08:32:07.063Z,21.100
2023-03-06T08:33:05.809Z,20.500
2023-03-06T08:34:06.349Z,20.900
2023-03-06T08:35:06.010Z,21.000
2023-03-06T08:36:06.871Z,20.300
2023-03-06T08:37:06.406Z,21.200
2023-03-06T08:38:06.037Z,21.400
2023-03-06T08:39:06.556Z,21.600
2023-03-06T08:40:06.314Z,21.200
2023-03-06T08:41:05.869Z,22.100
2023-03-06T08:42:06.392Z,20.800
2023-03-06T08:43:05.928Z,19.500
2023-03-06T08:44:06.428Z,19.700
2023-03-06T08:45:05.941Z,21.000
2023-03-06T08:46:06.735Z,19.900
2023-03-06T08:47:06.321Z,19.300
2023-03-06T08:48:05.821Z,20.600
2023-03-06T08:49:06.386Z,18.300
2023-03-06T08:50:05.980Z,18.000
2023-03-06T08:51:06.557Z,17.900
2023-03-06T08:52:06.125Z,18.000
2023-03-06T08:53:06.669Z,17.100
2023-03-06T08:54:11.136Z,18.100
2023-03-06T08:55:05.908Z,18.500
2023-03-06T08:56:06.437Z,17.900
2023-03-06T08:57:06.017Z,16.900
2023-03-06T08:58:06.545Z,18.300
2023-03-06T08:59:06.118Z,17.900
2023-03-06T09:00:05.805Z,17.100
2023-03-06T09:01:06.661Z,17.800
2023-03-06T09:02:06.343Z,17.600
2023-03-06T09:03:06.237Z,16.600
2023-03-06T09:04:06.748Z,18.100
2023-03-06T09:05:06.398Z,17.700
2023-03-06T09:06:05.912Z,17.300
2023-03-06T09:07:09.142Z,17.500
2023-03-06T09:08:06.679Z,17.400
2023-03-06T09:09:06.239Z,17.700
2023-03-06T09:10:05.807Z,17.800
2023-03-06T09:11:06.456Z,17.900
2023-03-06T09:12:06.066Z,17.300
2023-03-06T09:13:11.617Z,17.400
2023-03-06T09:14:06.196Z,17.000
2023-03-06T09:15:05.858Z,17.400
2023-03-06T09:16:06.455Z,17.000
2023-03-06T09:17:06.305Z,16.800
2023-03-06T09:18:06.157Z,17.400
2023-03-06T09:19:06.665Z,16.900
2023-03-06T09:20:06.309Z,17.000
2023-03-06T09:21:05.833Z,17.100
2023-03-06T09:22:06.373Z,17.200
2023-03-06T09:23:05.926Z,17.600
2023-03-06T09:24:06.524Z,16.700
2023-03-06T09:25:06.186Z,17.300
2023-03-06T09:26:06.728Z,19.100
2023-03-06T09:27:11.189Z,18.400
2023-03-06T09:28:15.653Z,19.100
2023-03-06T09:29:06.202Z,17.900
2023-03-06T09:30:05.793Z,18.600
2023-03-06T09:31:06.506Z,19.100
2023-03-06T09:32:06.345Z,18.100
2023-03-06T09:33:06.141Z,18.700
2023-03-06T09:34:06.722Z,18.400
2023-03-06T09:35:06.371Z,18.200
2023-03-06T09:36:05.980Z,18.500
2023-03-06T09:37:13.957Z,18.600
2023-03-06T09:38:05.952Z,18.600
2023-03-06T09:39:06.624Z,18.900
2023-03-06T09:40:06.189Z,18.200
2023-03-06T09:41:05.704Z,18.100
2023-03-06T09:42:06.470Z,19.200
2023-03-06T09:43:05.984Z,19.600
2023-03-06T09:44:06.664Z,19.000
2023-03-06T09:45:06.235Z,18.500
2023-03-06T09:46:06.076Z,20.200
2023-03-06T09:47:05.782Z,18.700
2023-03-06T09:48:06.356Z,19.300
2023-03-06T09:49:05.917Z,18.000
2023-03-06T09:50:06.504Z,18.000
2023-03-06T09:51:06.025Z,17.200
2023-03-06T09:52:06.625Z,16.100
2023-03-06T09:53:06.182Z,17.700
2023-03-06T09:54:05.794Z,18.500
2023-03-06T09:55:06.344Z,18.500
2023-03-06T09:56:05.973Z,17.800
2023-03-06T09:57:06.619Z,18.900
2023-03-06T09:58:07.631Z,17.600
2023-03-06T09:59:06.277Z,17.900
2023-03-06T10:00:05.884Z,17.100
2023-03-06T10:01:06.503Z,18.900
2023-03-06T10:02:06.150Z,17.300
2023-03-06T10:03:06.291Z,18.400
2023-03-06T10:04:06.160Z,17.800
2023-03-06T10:05:06.127Z,17.700
2023-03-06T10:06:05.762Z,17.200
2023-03-06T10:07:06.288Z,16.800
2023-03-06T10:08:05.787Z,17.300
2023-03-06T10:09:06.296Z,18.600
2023-03-06T10:10:05.859Z,18.800
2023-03-06T10:11:06.452Z,19.800
2023-03-06T10:12:06.020Z,19.000
2023-03-06T10:13:06.532Z,20.300
2023-03-06T10:14:06.080Z,19.000
2023-03-06T10:15:06.632Z,19.500
2023-03-06T10:16:06.444Z,20.200
2023-03-06T10:17:06.133Z,21.000
2023-03-06T10:18:06.653Z,20.600
2023-03-06T10:19:06.204Z,21.500
2023-03-06T10:20:06.870Z,21.100
2023-03-06T10:21:18.592Z,19.000
2023-03-06T10:23:15.629Z,21.400
2023-03-06T10:24:06.250Z,19.400
2023-03-06T10:25:05.860Z,20.500
2023-03-06T10:26:06.385Z,21.400
2023-03-06T10:27:06.534Z,18.400
2023-03-06T10:28:06.125Z,19.200
2023-03-06T10:29:09.173Z,19.300
2023-03-06T10:30:15.656Z,19.500
2023-03-06T10:31:06.272Z,19.200
2023-03-06T10:32:06.087Z,20.400
2023-03-06T10:33:11.583Z,19.200
2023-03-06T10:34:06.604Z,17.800
2023-03-06T10:35:06.160Z,18.100
2023-03-06T10:36:06.992Z,17.400
2023-03-06T10:37:06.527Z,17.700
2023-03-06T10:38:06.585Z,18.700
2023-03-06T10:39:06.251Z,17.800
2023-03-06T10:40:05.800Z,17.700
2023-03-06T10:41:06.588Z,17.400
2023-03-06T10:42:06.226Z,16.800
2023-03-06T10:43:15.580Z,15.900
2023-03-06T10:44:09.748Z,16.500
2023-03-06T10:45:06.315Z,17.300
2023-03-06T10:46:10.831Z,14.500
2023-03-06T10:47:06.556Z,16.100
2023-03-06T10:48:06.257Z,16.400
2023-03-06T10:49:05.788Z,16.000
2023-03-06T10:50:08.360Z,15.500
2023-03-06T10:51:13.110Z,16.100
2023-03-06T10:52:06.690Z,15.800
2023-03-06T10:53:06.141Z,15.000
2023-03-06T10:54:06.719Z,15.100
2023-03-06T10:55:06.383Z,15.500
2023-03-06T10:56:05.944Z,15.200
2023-03-06T10:57:06.622Z,14.800
2023-03-06T10:58:06.201Z,15.500
2023-03-06T10:59:05.789Z,14.900
2023-03-06T11:00:06.467Z,14.600
2023-03-06T11:01:06.100Z,15.700
2023-03-06T11:02:06.903Z,15.000
2023-03-06T11:03:06.476Z,15.400
2023-03-06T11:04:05.986Z,15.900
2023-03-06T11:05:06.843Z,15.200
2023-03-06T11:06:06.394Z,14.900
2023-03-06T11:07:05.716Z,15.500
2023-03-06T11:08:06.476Z,15.300
2023-03-06T11:09:06.200Z,15.100
2023-03-06T11:10:05.711Z,14.100
2023-03-06T11:11:06.413Z,15.600
2023-03-06T11:12:11.061Z,15.300
2023-03-06T11:13:06.612Z,13.900
2023-03-06T11:14:06.202Z,15.200
2023-03-06T11:15:05.797Z,15.200
2023-03-06T11:16:06.539Z,14.600
2023-03-06T11:17:06.274Z,14.000
2023-03-06T11:18:05.876Z,14.700
2023-03-06T11:19:06.393Z,13.700
2023-03-06T11:20:06.033Z,15.300
2023-03-06T11:21:11.445Z,13.900
2023-03-06T11:22:06.077Z,14.700
2023-03-06T11:23:07.015Z,14.100
2023-03-06T11:24:06.573Z,14.500
2023-03-06T11:25:06.128Z,15.300
2023-03-06T11:26:06.662Z,14.600
2023-03-06T11:27:07.366Z,14.900
2023-03-06T11:28:05.836Z,14.800
2023-03-06T11:29:06.460Z,14.900
2023-03-06T11:30:09.005Z,15.500
2023-03-06T11:31:06.515Z,14.300
2023-03-06T11:32:06.212Z,14.900
2023-03-06T11:33:05.772Z,14.600
2023-03-06T11:34:06.307Z,15.100
2023-03-06T11:35:06.889Z,14.500
2023-03-06T11:36:06.581Z,15.400
2023-03-06T11:37:06.200Z,15.600
2023-03-06T11:38:05.791Z,15.500
2023-03-06T11:39:06.318Z,15.200
2023-03-06T11:40:06.148Z,14.400
2023-03-06T11:41:06.656Z,13.800
2023-03-06T11:42:06.225Z,14.900
2023-03-06T11:43:05.741Z,15.400
2023-03-06T11:44:06.255Z,15.400
2023-03-06T11:45:06.069Z,15.400
2023-03-06T11:46:06.605Z,15.000
2023-03-06T11:47:06.261Z,15.800
2023-03-06T11:48:05.881Z,15.200
2023-03-06T11:49:06.412Z,14.900
2023-03-06T11:50:06.032Z,14.700
2023-03-06T11:51:06.710Z,15.600
2023-03-06T11:52:06.465Z,14.400
2023-03-06T11:53:06.016Z,14.500
2023-03-06T11:54:06.602Z,15.600
2023-03-06T11:55:06.217Z,15.300
2023-03-06T11:56:05.859Z,15.400
2023-03-06T11:57:06.482Z,15.400
2023-03-06T11:58:06.262Z,15.000
2023-03-06T11:59:05.973Z,14.500
2023-03-06T12:00:06.669Z,14.400
2023-03-06T12:01:06.522Z,15.800
2023-03-06T12:02:06.250Z,15.400
2023-03-06T12:03:05.937Z,14.700
2023-03-06T12:04:06.584Z,15.100
2023-03-06T12:05:06.259Z,14.800
2023-03-06T12:06:05.971Z,14.600
2023-03-06T12:07:07.708Z,14.600
2023-03-06T12:08:06.256Z,15.500
2023-03-06T12:09:05.875Z,15.500
2023-03-06T12:10:06.494Z,15.900
2023-03-06T12:12:07.196Z,15.200
2023-03-06T12:13:06.868Z,16.900
2023-03-06T12:14:07.378Z,15.600
2023-03-06T12:15:05.906Z,15.800
2023-03-06T12:16:06.533Z,15.100
2023-03-06T12:17:06.366Z,15.200
2023-03-06T12:18:06.049Z,16.300
2023-03-06T12:19:06.692Z,16.000
2023-03-06T12:20:06.253Z,16.200
2023-03-06T12:21:05.832Z,17.100
2023-03-06T12:22:06.631Z,17.100
2023-03-06T12:23:16.082Z,15.700
2023-03-06T12:24:06.739Z,15.800
2023-03-06T12:25:06.296Z,15.900
2023-03-06T12:26:05.908Z,15.600
2023-03-06T12:27:06.466Z,16.000
2023-03-06T12:28:06.083Z,16.000
2023-03-06T12:29:06.591Z,16.700
2023-03-06T12:30:06.153Z,16.100
2023-03-06T12:31:06.779Z,16.800
2023-03-06T12:32:06.666Z,15.800
2023-03-06T12:33:06.846Z,16.700
2023-03-06T12:34:06.383Z,17.600
2023-03-06T12:35:06.352Z,16.000
2023-03-06T12:36:06.244Z,16.500
2023-03-06T12:37:05.724Z,15.200